sensor_id;sensor_type;location;lat;lon;timestamp;P1;durP1;ratioP1;P2;durP2;ratioP2
64826;SDS011;51265;53.972;12.286;2024-03-22T00:01:56;29.70;;;15.05;;
64826;SDS011;51265;53.972;12.286;2024-03-22T00:04:23;25.90;;;14.88;;
64826;SDS011;51265;53.972;12.286;2024-03-22T00:06:49;36.22;;;15.20;;
64826;SDS011;51265;53.972;12.286;2024-03-22T00:09:16;26.10;;;15.00;;
64826;SDS011;51265;53.972;12.286;2024-03-22T00:11:43;31.45;;;15.35;;
64826;SDS011;51265;53.972;12.286;2024-03-22T00:14:10;26.70;;;15.10;;
64826;SDS011;51265;53.972;12.286;2024-03-22T00:16:37;31.48;;;15.15;;
64826;SDS011;51265;53.972;12.286;2024-03-22T00:19:04;26.95;;;15.35;;
64826;SDS011;51265;53.972;12.286;2024-03-22T00:21:30;26.77;;;15.20;;
64826;SDS011;51265;53.972;12.286;2024-03-22T00:23:57;25.48;;;14.40;;
64826;SDS011;51265;53.972;12.286;2024-03-22T00:26:23;33.03;;;16.05;;
64826;SDS011;51265;53.972;12.286;2024-03-22T00:28:50;27.23;;;15.68;;
64826;SDS011;51265;53.972;12.286;2024-03-22T00:31:16;26.63;;;15.23;;
64826;SDS011;51265;53.972;12.286;2024-03-22T00:33:43;27.80;;;15.15;;
64826;SDS011;51265;53.972;12.286;2024-03-22T00:36:09;33.78;;;16.02;;
64826;SDS011;51265;53.972;12.286;2024-03-22T00:38:35;25.55;;;14.48;;
64826;SDS011;51265;53.972;12.286;2024-03-22T00:41:02;23.38;;;14.20;;
64826;SDS011;51265;53.972;12.286;2024-03-22T00:43:28;30.33;;;15.32;;
64826;SDS011;51265;53.972;12.286;2024-03-22T00:45:54;33.10;;;15.68;;
64826;SDS011;51265;53.972;12.286;2024-03-22T00:48:20;31.88;;;16.20;;
64826;SDS011;51265;53.972;12.286;2024-03-22T00:50:46;32.88;;;15.90;;
64826;SDS011;51265;53.972;12.286;2024-03-22T00:53:13;35.45;;;15.10;;
64826;SDS011;51265;53.972;12.286;2024-03-22T00:55:39;39.67;;;16.42;;
64826;SDS011;51265;53.972;12.286;2024-03-22T00:58:05;31.48;;;16.27;;
64826;SDS011;51265;53.972;12.286;2024-03-22T01:00:31;33.47;;;16.33;;
64826;SDS011;51265;53.972;12.286;2024-03-22T01:02:57;31.45;;;15.20;;
64826;SDS011;51265;53.972;12.286;2024-03-22T01:05:24;28.48;;;15.45;;
64826;SDS011;51265;53.972;12.286;2024-03-22T01:07:50;35.80;;;16.20;;
64826;SDS011;51265;53.972;12.286;2024-03-22T01:10:16;28.55;;;15.57;;
64826;SDS011;51265;53.972;12.286;2024-03-22T01:12:42;29.88;;;15.43;;
64826;SDS011;51265;53.972;12.286;2024-03-22T01:15:08;36.65;;;16.45;;
64826;SDS011;51265;53.972;12.286;2024-03-22T01:17:35;30.95;;;15.73;;
64826;SDS011;51265;53.972;12.286;2024-03-22T01:20:04;33.85;;;16.90;;
64826;SDS011;51265;53.972;12.286;2024-03-22T01:22:34;29.05;;;15.38;;
64826;SDS011;51265;53.972;12.286;2024-03-22T01:25:02;30.00;;;15.45;;
64826;SDS011;51265;53.972;12.286;2024-03-22T01:27:39;30.17;;;15.77;;
64826;SDS011;51265;53.972;12.286;2024-03-22T01:30:05;31.08;;;15.85;;
64826;SDS011;51265;53.972;12.286;2024-03-22T01:32:32;33.40;;;16.20;;
64826;SDS011;51265;53.972;12.286;2024-03-22T01:34:58;33.25;;;16.15;;
64826;SDS011;51265;53.972;12.286;2024-03-22T01:37:24;26.83;;;14.32;;
64826;SDS011;51265;53.972;12.286;2024-03-22T01:39:50;31.08;;;14.35;;
64826;SDS011;51265;53.972;12.286;2024-03-22T01:42:17;32.65;;;15.23;;
64826;SDS011;51265;53.972;12.286;2024-03-22T01:44:43;36.25;;;15.45;;
64826;SDS011;51265;53.972;12.286;2024-03-22T01:47:09;26.08;;;14.15;;
64826;SDS011;51265;53.972;12.286;2024-03-22T01:49:35;27.63;;;13.80;;
64826;SDS011;51265;53.972;12.286;2024-03-22T01:52:02;28.05;;;13.90;;
64826;SDS011;51265;53.972;12.286;2024-03-22T01:54:29;30.35;;;14.25;;
64826;SDS011;51265;53.972;12.286;2024-03-22T01:56:56;30.23;;;14.38;;
64826;SDS011;51265;53.972;12.286;2024-03-22T01:59:22;24.40;;;12.90;;
64826;SDS011;51265;53.972;12.286;2024-03-22T02:01:49;26.58;;;13.05;;
64826;SDS011;51265;53.972;12.286;2024-03-22T02:04:15;28.40;;;12.07;;
64826;SDS011;51265;53.972;12.286;2024-03-22T02:06:41;25.45;;;13.10;;
64826;SDS011;51265;53.972;12.286;2024-03-22T02:09:07;28.67;;;12.50;;
64826;SDS011;51265;53.972;12.286;2024-03-22T02:11:37;31.92;;;12.82;;
64826;SDS011;51265;53.972;12.286;2024-03-22T02:14:05;31.25;;;12.68;;
64826;SDS011;51265;53.972;12.286;2024-03-22T02:16:31;25.40;;;12.13;;
64826;SDS011;51265;53.972;12.286;2024-03-22T02:18:57;24.05;;;11.98;;
64826;SDS011;51265;53.972;12.286;2024-03-22T02:21:23;26.92;;;13.35;;
64826;SDS011;51265;53.972;12.286;2024-03-22T02:23:50;23.00;;;11.68;;
64826;SDS011;51265;53.972;12.286;2024-03-22T02:26:16;27.27;;;12.43;;
64826;SDS011;51265;53.972;12.286;2024-03-22T02:28:42;21.63;;;12.00;;
64826;SDS011;51265;53.972;12.286;2024-03-22T02:31:08;22.00;;;11.43;;
64826;SDS011;51265;53.972;12.286;2024-03-22T02:33:34;20.90;;;11.60;;
64826;SDS011;51265;53.972;12.286;2024-03-22T02:36:01;26.10;;;11.50;;
64826;SDS011;51265;53.972;12.286;2024-03-22T02:38:27;20.58;;;11.38;;
64826;SDS011;51265;53.972;12.286;2024-03-22T02:40:53;22.00;;;11.60;;
64826;SDS011;51265;53.972;12.286;2024-03-22T02:43:19;24.95;;;11.80;;
64826;SDS011;51265;53.972;12.286;2024-03-22T02:45:47;24.85;;;11.35;;
64826;SDS011;51265;53.972;12.286;2024-03-22T02:48:14;12.40;;;8.90;;
64826;SDS011;51265;53.972;12.286;2024-03-22T02:50:40;12.88;;;8.70;;
64826;SDS011;51265;53.972;12.286;2024-03-22T02:53:07;12.77;;;7.10;;
64826;SDS011;51265;53.972;12.286;2024-03-22T02:55:37;11.73;;;7.88;;
64826;SDS011;51265;53.972;12.286;2024-03-22T02:58:04;12.68;;;7.53;;
64826;SDS011;51265;53.972;12.286;2024-03-22T03:00:31;13.30;;;8.90;;
64826;SDS011;51265;53.972;12.286;2024-03-22T03:03:01;12.32;;;7.53;;
64826;SDS011;51265;53.972;12.286;2024-03-22T03:05:27;18.27;;;9.23;;
64826;SDS011;51265;53.972;12.286;2024-03-22T03:07:53;24.05;;;11.65;;
64826;SDS011;51265;53.972;12.286;2024-03-22T03:10:19;16.80;;;10.07;;
64826;SDS011;51265;53.972;12.286;2024-03-22T03:12:45;19.25;;;9.63;;
64826;SDS011;51265;53.972;12.286;2024-03-22T03:15:12;14.52;;;9.52;;
64826;SDS011;51265;53.972;12.286;2024-03-22T03:17:38;19.55;;;9.45;;
64826;SDS011;51265;53.972;12.286;2024-03-22T03:20:04;18.80;;;10.30;;
64826;SDS011;51265;53.972;12.286;2024-03-22T03:22:34;20.77;;;10.75;;
64826;SDS011;51265;53.972;12.286;2024-03-22T03:25:00;17.73;;;10.63;;
64826;SDS011;51265;53.972;12.286;2024-03-22T03:27:28;20.35;;;10.80;;
64826;SDS011;51265;53.972;12.286;2024-03-22T03:29:54;17.92;;;10.05;;
64826;SDS011;51265;53.972;12.286;2024-03-22T03:32:20;14.25;;;9.35;;
64826;SDS011;51265;53.972;12.286;2024-03-22T03:34:47;16.98;;;10.35;;
64826;SDS011;51265;53.972;12.286;2024-03-22T03:37:14;19.67;;;10.48;;
64826;SDS011;51265;53.972;12.286;2024-03-22T03:39:40;16.60;;;10.35;;
64826;SDS011;51265;53.972;12.286;2024-03-22T03:42:06;22.08;;;11.20;;
64826;SDS011;51265;53.972;12.286;2024-03-22T03:44:32;21.10;;;11.20;;
64826;SDS011;51265;53.972;12.286;2024-03-22T03:47:00;17.13;;;11.05;;
64826;SDS011;51265;53.972;12.286;2024-03-22T03:49:27;21.30;;;11.77;;
64826;SDS011;51265;53.972;12.286;2024-03-22T03:51:53;20.88;;;11.23;;
64826;SDS011;51265;53.972;12.286;2024-03-22T03:54:19;18.52;;;11.38;;
64826;SDS011;51265;53.972;12.286;2024-03-22T03:56:45;19.60;;;12.20;;
64826;SDS011;51265;53.972;12.286;2024-03-22T03:59:11;21.83;;;12.13;;
64826;SDS011;51265;53.972;12.286;2024-03-22T04:01:38;23.83;;;12.02;;
64826;SDS011;51265;53.972;12.286;2024-03-22T04:04:04;19.10;;;11.13;;
64826;SDS011;51265;53.972;12.286;2024-03-22T04:06:30;23.92;;;12.05;;
64826;SDS011;51265;53.972;12.286;2024-03-22T04:08:56;23.30;;;12.82;;
64826;SDS011;51265;53.972;12.286;2024-03-22T04:11:23;22.40;;;12.07;;
64826;SDS011;51265;53.972;12.286;2024-03-22T04:13:49;21.38;;;12.02;;
64826;SDS011;51265;53.972;12.286;2024-03-22T04:16:16;20.92;;;12.38;;
64826;SDS011;51265;53.972;12.286;2024-03-22T04:18:42;24.02;;;12.77;;
64826;SDS011;51265;53.972;12.286;2024-03-22T04:21:08;18.45;;;11.23;;
64826;SDS011;51265;53.972;12.286;2024-03-22T04:23:34;18.85;;;12.35;;
64826;SDS011;51265;53.972;12.286;2024-03-22T04:26:01;20.45;;;12.40;;
64826;SDS011;51265;53.972;12.286;2024-03-22T04:28:27;21.73;;;12.93;;
64826;SDS011;51265;53.972;12.286;2024-03-22T04:30:55;20.02;;;12.70;;
64826;SDS011;51265;53.972;12.286;2024-03-22T04:33:32;23.55;;;12.48;;
64826;SDS011;51265;53.972;12.286;2024-03-22T04:35:59;22.73;;;11.98;;
64826;SDS011;51265;53.972;12.286;2024-03-22T04:38:29;22.85;;;12.77;;
64826;SDS011;51265;53.972;12.286;2024-03-22T04:40:56;23.35;;;13.10;;
64826;SDS011;51265;53.972;12.286;2024-03-22T04:43:26;20.73;;;12.90;;
64826;SDS011;51265;53.972;12.286;2024-03-22T04:45:52;22.80;;;13.45;;
64826;SDS011;51265;53.972;12.286;2024-03-22T04:48:22;21.55;;;13.30;;
64826;SDS011;51265;53.972;12.286;2024-03-22T04:50:49;25.83;;;13.02;;
64826;SDS011;51265;53.972;12.286;2024-03-22T04:53:17;25.23;;;14.10;;
64826;SDS011;51265;53.972;12.286;2024-03-22T04:55:45;23.58;;;13.65;;
64826;SDS011;51265;53.972;12.286;2024-03-22T04:58:12;23.20;;;14.05;;
64826;SDS011;51265;53.972;12.286;2024-03-22T05:00:43;28.75;;;14.25;;
64826;SDS011;51265;53.972;12.286;2024-03-22T05:03:10;26.40;;;14.20;;
64826;SDS011;51265;53.972;12.286;2024-03-22T05:05:37;24.75;;;14.75;;
64826;SDS011;51265;53.972;12.286;2024-03-22T05:08:03;29.48;;;15.85;;
64826;SDS011;51265;53.972;12.286;2024-03-22T05:10:30;25.30;;;15.48;;
64826;SDS011;51265;53.972;12.286;2024-03-22T05:12:57;29.35;;;15.18;;
64826;SDS011;51265;53.972;12.286;2024-03-22T05:15:23;23.95;;;15.25;;
64826;SDS011;51265;53.972;12.286;2024-03-22T05:17:53;29.92;;;15.48;;
64826;SDS011;51265;53.972;12.286;2024-03-22T05:20:20;24.60;;;15.25;;
64826;SDS011;51265;53.972;12.286;2024-03-22T05:22:47;29.50;;;15.40;;
64826;SDS011;51265;53.972;12.286;2024-03-22T05:25:13;27.98;;;16.25;;
64826;SDS011;51265;53.972;12.286;2024-03-22T05:27:41;28.88;;;16.88;;
64826;SDS011;51265;53.972;12.286;2024-03-22T05:30:11;28.48;;;15.65;;
64826;SDS011;51265;53.972;12.286;2024-03-22T05:32:39;28.35;;;16.10;;
64826;SDS011;51265;53.972;12.286;2024-03-22T05:35:08;30.38;;;16.80;;
64826;SDS011;51265;53.972;12.286;2024-03-22T05:37:34;26.90;;;16.23;;
64826;SDS011;51265;53.972;12.286;2024-03-22T05:40:01;26.15;;;16.33;;
64826;SDS011;51265;53.972;12.286;2024-03-22T05:42:30;29.13;;;17.58;;
64826;SDS011;51265;53.972;12.286;2024-03-22T05:44:56;28.85;;;17.02;;
64826;SDS011;51265;53.972;12.286;2024-03-22T05:47:23;31.50;;;16.98;;
64826;SDS011;51265;53.972;12.286;2024-03-22T05:49:49;33.22;;;18.63;;
64826;SDS011;51265;53.972;12.286;2024-03-22T05:52:15;31.52;;;17.52;;
64826;SDS011;51265;53.972;12.286;2024-03-22T05:54:41;26.38;;;15.25;;
64826;SDS011;51265;53.972;12.286;2024-03-22T05:57:08;32.22;;;18.42;;
64826;SDS011;51265;53.972;12.286;2024-03-22T05:59:34;34.58;;;19.30;;
64826;SDS011;51265;53.972;12.286;2024-03-22T06:02:00;33.28;;;18.80;;
64826;SDS011;51265;53.972;12.286;2024-03-22T06:04:27;34.53;;;19.63;;
64826;SDS011;51265;53.972;12.286;2024-03-22T06:06:53;32.97;;;19.42;;
64826;SDS011;51265;53.972;12.286;2024-03-22T06:09:19;35.72;;;20.98;;
64826;SDS011;51265;53.972;12.286;2024-03-22T06:12:00;35.15;;;20.02;;
64826;SDS011;51265;53.972;12.286;2024-03-22T06:14:28;33.10;;;19.88;;
64826;SDS011;51265;53.972;12.286;2024-03-22T06:16:54;32.20;;;19.73;;
64826;SDS011;51265;53.972;12.286;2024-03-22T06:19:20;32.60;;;18.70;;
64826;SDS011;51265;53.972;12.286;2024-03-22T06:21:46;32.75;;;20.13;;
64826;SDS011;51265;53.972;12.286;2024-03-22T06:24:13;33.13;;;20.25;;
64826;SDS011;51265;53.972;12.286;2024-03-22T06:26:39;36.08;;;19.55;;
64826;SDS011;51265;53.972;12.286;2024-03-22T06:29:06;32.22;;;18.75;;
64826;SDS011;51265;53.972;12.286;2024-03-22T06:31:32;34.08;;;19.95;;
64826;SDS011;51265;53.972;12.286;2024-03-22T06:33:58;34.10;;;21.33;;
64826;SDS011;51265;53.972;12.286;2024-03-22T06:36:28;31.73;;;19.45;;
64826;SDS011;51265;53.972;12.286;2024-03-22T06:38:55;33.67;;;20.17;;
64826;SDS011;51265;53.972;12.286;2024-03-22T06:41:22;36.67;;;21.60;;
64826;SDS011;51265;53.972;12.286;2024-03-22T06:43:48;35.95;;;21.58;;
64826;SDS011;51265;53.972;12.286;2024-03-22T06:46:14;37.05;;;21.35;;
64826;SDS011;51265;53.972;12.286;2024-03-22T06:48:40;32.17;;;20.05;;
64826;SDS011;51265;53.972;12.286;2024-03-22T06:51:06;39.10;;;21.20;;
64826;SDS011;51265;53.972;12.286;2024-03-22T06:53:32;35.47;;;21.55;;
64826;SDS011;51265;53.972;12.286;2024-03-22T06:55:59;33.92;;;20.95;;
64826;SDS011;51265;53.972;12.286;2024-03-22T06:58:25;34.47;;;21.38;;
64826;SDS011;51265;53.972;12.286;2024-03-22T07:00:51;36.17;;;22.23;;
64826;SDS011;51265;53.972;12.286;2024-03-22T07:03:18;31.02;;;19.35;;
64826;SDS011;51265;53.972;12.286;2024-03-22T07:05:44;35.83;;;20.25;;
64826;SDS011;51265;53.972;12.286;2024-03-22T07:08:10;35.33;;;21.83;;
64826;SDS011;51265;53.972;12.286;2024-03-22T07:10:38;34.85;;;22.17;;
64826;SDS011;51265;53.972;12.286;2024-03-22T07:13:06;34.85;;;20.92;;
64826;SDS011;51265;53.972;12.286;2024-03-22T07:15:32;35.45;;;21.17;;
64826;SDS011;51265;53.972;12.286;2024-03-22T07:17:58;34.83;;;21.80;;
64826;SDS011;51265;53.972;12.286;2024-03-22T07:20:25;32.92;;;21.10;;
64826;SDS011;51265;53.972;12.286;2024-03-22T07:22:51;36.50;;;21.48;;
64826;SDS011;51265;53.972;12.286;2024-03-22T07:25:18;36.03;;;22.05;;
64826;SDS011;51265;53.972;12.286;2024-03-22T07:27:44;27.13;;;18.80;;
64826;SDS011;51265;53.972;12.286;2024-03-22T07:30:12;26.42;;;19.45;;
64826;SDS011;51265;53.972;12.286;2024-03-22T07:32:39;25.95;;;19.33;;
64826;SDS011;51265;53.972;12.286;2024-03-22T07:35:05;28.67;;;20.20;;
64826;SDS011;51265;53.972;12.286;2024-03-22T07:37:33;27.55;;;19.40;;
64826;SDS011;51265;53.972;12.286;2024-03-22T07:40:01;29.67;;;19.85;;
64826;SDS011;51265;53.972;12.286;2024-03-22T07:42:28;32.88;;;19.45;;
64826;SDS011;51265;53.972;12.286;2024-03-22T07:44:54;29.10;;;19.73;;
64826;SDS011;51265;53.972;12.286;2024-03-22T07:47:20;32.83;;;20.52;;
64826;SDS011;51265;53.972;12.286;2024-03-22T07:49:47;29.48;;;20.30;;
64826;SDS011;51265;53.972;12.286;2024-03-22T07:52:13;29.92;;;19.52;;
64826;SDS011;51265;53.972;12.286;2024-03-22T07:54:39;29.33;;;20.83;;
64826;SDS011;51265;53.972;12.286;2024-03-22T07:57:05;30.27;;;20.70;;
64826;SDS011;51265;53.972;12.286;2024-03-22T07:59:32;29.58;;;19.88;;
64826;SDS011;51265;53.972;12.286;2024-03-22T08:01:58;29.95;;;20.20;;
64826;SDS011;51265;53.972;12.286;2024-03-22T08:04:24;30.85;;;21.17;;
64826;SDS011;51265;53.972;12.286;2024-03-22T08:06:50;29.42;;;21.05;;
64826;SDS011;51265;53.972;12.286;2024-03-22T08:09:17;30.48;;;20.65;;
64826;SDS011;51265;53.972;12.286;2024-03-22T08:11:44;28.30;;;19.83;;
64826;SDS011;51265;53.972;12.286;2024-03-22T08:14:12;29.02;;;20.60;;
64826;SDS011;51265;53.972;12.286;2024-03-22T08:16:38;29.55;;;21.05;;
64826;SDS011;51265;53.972;12.286;2024-03-22T08:19:04;26.13;;;19.60;;
64826;SDS011;51265;53.972;12.286;2024-03-22T08:21:30;26.63;;;19.13;;
64826;SDS011;51265;53.972;12.286;2024-03-22T08:23:56;28.15;;;19.10;;
64826;SDS011;51265;53.972;12.286;2024-03-22T08:26:22;31.50;;;20.63;;
64826;SDS011;51265;53.972;12.286;2024-03-22T08:28:49;26.17;;;19.58;;
64826;SDS011;51265;53.972;12.286;2024-03-22T08:31:15;29.83;;;20.52;;
64826;SDS011;51265;53.972;12.286;2024-03-22T08:33:42;30.52;;;20.23;;
64826;SDS011;51265;53.972;12.286;2024-03-22T08:36:09;30.38;;;21.42;;
64826;SDS011;51265;53.972;12.286;2024-03-22T08:38:35;29.65;;;21.85;;
64826;SDS011;51265;53.972;12.286;2024-03-22T08:41:01;32.22;;;22.02;;
64826;SDS011;51265;53.972;12.286;2024-03-22T08:43:27;30.30;;;21.27;;
64826;SDS011;51265;53.972;12.286;2024-03-22T08:45:55;30.70;;;21.90;;
64826;SDS011;51265;53.972;12.286;2024-03-22T08:48:21;32.47;;;21.95;;
64826;SDS011;51265;53.972;12.286;2024-03-22T08:50:47;31.98;;;21.77;;
64826;SDS011;51265;53.972;12.286;2024-03-22T08:53:14;28.73;;;22.08;;
64826;SDS011;51265;53.972;12.286;2024-03-22T08:55:46;30.23;;;22.02;;
64826;SDS011;51265;53.972;12.286;2024-03-22T08:58:13;31.35;;;22.85;;
64826;SDS011;51265;53.972;12.286;2024-03-22T09:00:41;27.55;;;22.05;;
64826;SDS011;51265;53.972;12.286;2024-03-22T09:03:08;34.55;;;23.27;;
64826;SDS011;51265;53.972;12.286;2024-03-22T09:05:34;32.50;;;21.65;;
64826;SDS011;51265;53.972;12.286;2024-03-22T09:08:01;37.20;;;24.70;;
64826;SDS011;51265;53.972;12.286;2024-03-22T09:10:29;39.53;;;25.17;;
64826;SDS011;51265;53.972;12.286;2024-03-22T09:12:56;40.38;;;25.35;;
64826;SDS011;51265;53.972;12.286;2024-03-22T09:15:22;39.42;;;26.23;;
64826;SDS011;51265;53.972;12.286;2024-03-22T09:17:48;42.85;;;27.23;;
64826;SDS011;51265;53.972;12.286;2024-03-22T09:20:15;40.10;;;26.30;;
64826;SDS011;51265;53.972;12.286;2024-03-22T09:22:42;41.78;;;27.58;;
64826;SDS011;51265;53.972;12.286;2024-03-22T09:25:08;35.08;;;24.17;;
64826;SDS011;51265;53.972;12.286;2024-03-22T09:27:34;41.10;;;26.60;;
64826;SDS011;51265;53.972;12.286;2024-03-22T09:30:00;39.85;;;26.80;;
64826;SDS011;51265;53.972;12.286;2024-03-22T09:32:27;43.60;;;26.88;;
64826;SDS011;51265;53.972;12.286;2024-03-22T09:34:54;35.78;;;28.20;;
64826;SDS011;51265;53.972;12.286;2024-03-22T09:37:20;39.22;;;27.05;;
64826;SDS011;51265;53.972;12.286;2024-03-22T09:39:46;40.08;;;28.08;;
64826;SDS011;51265;53.972;12.286;2024-03-22T09:42:13;38.70;;;28.08;;
64826;SDS011;51265;53.972;12.286;2024-03-22T09:44:46;41.75;;;28.33;;
64826;SDS011;51265;53.972;12.286;2024-03-22T09:47:16;38.47;;;27.52;;
64826;SDS011;51265;53.972;12.286;2024-03-22T09:49:43;40.40;;;27.92;;
64826;SDS011;51265;53.972;12.286;2024-03-22T09:52:14;39.10;;;29.23;;
64826;SDS011;51265;53.972;12.286;2024-03-22T09:54:41;40.65;;;29.30;;
64826;SDS011;51265;53.972;12.286;2024-03-22T09:57:13;42.65;;;29.60;;
64826;SDS011;51265;53.972;12.286;2024-03-22T09:59:42;42.53;;;29.42;;
64826;SDS011;51265;53.972;12.286;2024-03-22T10:02:10;43.03;;;30.50;;
64826;SDS011;51265;53.972;12.286;2024-03-22T10:04:41;37.67;;;27.67;;
64826;SDS011;51265;53.972;12.286;2024-03-22T10:07:07;40.00;;;27.85;;
64826;SDS011;51265;53.972;12.286;2024-03-22T10:09:35;42.63;;;27.83;;
64826;SDS011;51265;53.972;12.286;2024-03-22T10:12:02;42.78;;;29.60;;
64826;SDS011;51265;53.972;12.286;2024-03-22T10:14:29;41.42;;;28.42;;
64826;SDS011;51265;53.972;12.286;2024-03-22T10:16:56;40.58;;;28.60;;
64826;SDS011;51265;53.972;12.286;2024-03-22T10:19:23;42.13;;;30.65;;
64826;SDS011;51265;53.972;12.286;2024-03-22T10:22:01;43.47;;;29.70;;
64826;SDS011;51265;53.972;12.286;2024-03-22T10:24:29;41.33;;;28.63;;
64826;SDS011;51265;53.972;12.286;2024-03-22T10:26:55;43.85;;;29.38;;
64826;SDS011;51265;53.972;12.286;2024-03-22T10:29:22;37.17;;;25.25;;
64826;SDS011;51265;53.972;12.286;2024-03-22T10:31:50;39.72;;;26.35;;
64826;SDS011;51265;53.972;12.286;2024-03-22T10:34:17;44.22;;;28.25;;
64826;SDS011;51265;53.972;12.286;2024-03-22T10:36:45;44.00;;;28.33;;
64826;SDS011;51265;53.972;12.286;2024-03-22T10:39:12;44.17;;;28.35;;
64826;SDS011;51265;53.972;12.286;2024-03-22T10:41:41;43.40;;;27.75;;
64826;SDS011;51265;53.972;12.286;2024-03-22T10:44:10;45.47;;;29.95;;
64826;SDS011;51265;53.972;12.286;2024-03-22T10:46:36;44.55;;;27.95;;
64826;SDS011;51265;53.972;12.286;2024-03-22T10:49:03;45.17;;;28.70;;
64826;SDS011;51265;53.972;12.286;2024-03-22T10:51:32;52.33;;;29.15;;
64826;SDS011;51265;53.972;12.286;2024-03-22T10:54:02;45.53;;;28.98;;
64826;SDS011;51265;53.972;12.286;2024-03-22T10:56:30;45.92;;;28.27;;
64826;SDS011;51265;53.972;12.286;2024-03-22T10:58:57;46.67;;;29.92;;
64826;SDS011;51265;53.972;12.286;2024-03-22T11:01:31;52.25;;;31.27;;
64826;SDS011;51265;53.972;12.286;2024-03-22T11:04:05;43.80;;;27.67;;
64826;SDS011;51265;53.972;12.286;2024-03-22T11:06:36;43.55;;;27.67;;
64826;SDS011;51265;53.972;12.286;2024-03-22T11:09:03;45.92;;;28.70;;
64826;SDS011;51265;53.972;12.286;2024-03-22T11:11:32;47.65;;;30.20;;
64826;SDS011;51265;53.972;12.286;2024-03-22T11:14:03;53.42;;;31.77;;
64826;SDS011;51265;53.972;12.286;2024-03-22T11:16:29;53.53;;;31.40;;
64826;SDS011;51265;53.972;12.286;2024-03-22T11:18:56;54.05;;;31.85;;
64826;SDS011;51265;53.972;12.286;2024-03-22T11:21:22;55.10;;;33.33;;
64826;SDS011;51265;53.972;12.286;2024-03-22T11:23:49;56.90;;;34.70;;
64826;SDS011;51265;53.972;12.286;2024-03-22T11:26:15;60.88;;;34.72;;
64826;SDS011;51265;53.972;12.286;2024-03-22T11:28:42;59.92;;;34.70;;
64826;SDS011;51265;53.972;12.286;2024-03-22T11:31:08;58.58;;;33.60;;
64826;SDS011;51265;53.972;12.286;2024-03-22T11:33:34;59.58;;;34.55;;
64826;SDS011;51265;53.972;12.286;2024-03-22T11:36:01;59.17;;;34.22;;
64826;SDS011;51265;53.972;12.286;2024-03-22T11:38:28;57.55;;;32.97;;
64826;SDS011;51265;53.972;12.286;2024-03-22T11:40:57;63.17;;;32.90;;
64826;SDS011;51265;53.972;12.286;2024-03-22T11:43:26;53.60;;;31.80;;
64826;SDS011;51265;53.972;12.286;2024-03-22T11:45:54;56.90;;;32.85;;
64826;SDS011;51265;53.972;12.286;2024-03-22T11:48:21;56.55;;;33.45;;
64826;SDS011;51265;53.972;12.286;2024-03-22T11:50:49;53.50;;;32.65;;
64826;SDS011;51265;53.972;12.286;2024-03-22T11:53:16;59.08;;;33.35;;
64826;SDS011;51265;53.972;12.286;2024-03-22T11:55:43;59.13;;;33.53;;
64826;SDS011;51265;53.972;12.286;2024-03-22T11:58:12;63.25;;;36.83;;
64826;SDS011;51265;53.972;12.286;2024-03-22T12:00:38;56.33;;;32.97;;
64826;SDS011;51265;53.972;12.286;2024-03-22T12:03:04;58.63;;;34.03;;
64826;SDS011;51265;53.972;12.286;2024-03-22T12:05:32;52.78;;;31.73;;
64826;SDS011;51265;53.972;12.286;2024-03-22T12:07:58;54.85;;;33.00;;
64826;SDS011;51265;53.972;12.286;2024-03-22T12:10:24;140.63;;;98.93;;
64826;SDS011;51265;53.972;12.286;2024-03-22T12:12:50;52.20;;;29.83;;
64826;SDS011;51265;53.972;12.286;2024-03-22T12:15:16;56.65;;;32.75;;
64826;SDS011;51265;53.972;12.286;2024-03-22T12:17:43;53.65;;;34.97;;
64826;SDS011;51265;53.972;12.286;2024-03-22T12:20:09;46.97;;;28.42;;
64826;SDS011;51265;53.972;12.286;2024-03-22T12:22:35;73.28;;;64.70;;
64826;SDS011;51265;53.972;12.286;2024-03-22T12:25:01;40.58;;;24.23;;
64826;SDS011;51265;53.972;12.286;2024-03-22T12:27:30;35.58;;;22.10;;
64826;SDS011;51265;53.972;12.286;2024-03-22T12:29:56;34.60;;;21.48;;
64826;SDS011;51265;53.972;12.286;2024-03-22T12:32:22;30.67;;;20.20;;
64826;SDS011;51265;53.972;12.286;2024-03-22T12:34:48;31.42;;;20.15;;
64826;SDS011;51265;53.972;12.286;2024-03-22T12:37:15;29.40;;;19.77;;
64826;SDS011;51265;53.972;12.286;2024-03-22T12:39:41;31.60;;;17.52;;
64826;SDS011;51265;53.972;12.286;2024-03-22T12:42:07;25.17;;;17.08;;
64826;SDS011;51265;53.972;12.286;2024-03-22T12:44:34;24.98;;;16.70;;
64826;SDS011;51265;53.972;12.286;2024-03-22T12:47:00;24.77;;;15.82;;
64826;SDS011;51265;53.972;12.286;2024-03-22T12:49:26;23.90;;;15.63;;
64826;SDS011;51265;53.972;12.286;2024-03-22T12:51:52;16.65;;;10.98;;
64826;SDS011;51265;53.972;12.286;2024-03-22T12:54:19;13.85;;;9.93;;
64826;SDS011;51265;53.972;12.286;2024-03-22T12:56:46;15.43;;;11.00;;
64826;SDS011;51265;53.972;12.286;2024-03-22T12:59:13;14.25;;;10.77;;
64826;SDS011;51265;53.972;12.286;2024-03-22T13:01:39;18.73;;;11.05;;
64826;SDS011;51265;53.972;12.286;2024-03-22T13:04:05;17.10;;;11.85;;
64826;SDS011;51265;53.972;12.286;2024-03-22T13:06:32;13.98;;;10.07;;
64826;SDS011;51265;53.972;12.286;2024-03-22T13:09:00;14.55;;;10.98;;
64826;SDS011;51265;53.972;12.286;2024-03-22T13:11:27;14.07;;;10.55;;
64826;SDS011;51265;53.972;12.286;2024-03-22T13:13:53;15.25;;;10.48;;
64826;SDS011;51265;53.972;12.286;2024-03-22T13:16:19;15.80;;;10.25;;
64826;SDS011;51265;53.972;12.286;2024-03-22T13:18:46;14.15;;;9.98;;
64826;SDS011;51265;53.972;12.286;2024-03-22T13:21:13;16.73;;;10.95;;
64826;SDS011;51265;53.972;12.286;2024-03-22T13:23:39;16.05;;;10.82;;
64826;SDS011;51265;53.972;12.286;2024-03-22T13:26:05;17.35;;;10.55;;
64826;SDS011;51265;53.972;12.286;2024-03-22T13:28:32;14.70;;;10.63;;
64826;SDS011;51265;53.972;12.286;2024-03-22T13:31:02;18.45;;;10.98;;
64826;SDS011;51265;53.972;12.286;2024-03-22T13:33:29;15.32;;;11.13;;
64826;SDS011;51265;53.972;12.286;2024-03-22T13:35:56;15.00;;;10.63;;
64826;SDS011;51265;53.972;12.286;2024-03-22T13:38:22;13.55;;;10.05;;
64826;SDS011;51265;53.972;12.286;2024-03-22T13:40:58;14.38;;;10.10;;
64826;SDS011;51265;53.972;12.286;2024-03-22T13:43:25;15.18;;;10.93;;
64826;SDS011;51265;53.972;12.286;2024-03-22T13:45:53;15.55;;;10.25;;
64826;SDS011;51265;53.972;12.286;2024-03-22T13:48:20;15.70;;;10.45;;
64826;SDS011;51265;53.972;12.286;2024-03-22T13:50:52;16.95;;;11.90;;
64826;SDS011;51265;53.972;12.286;2024-03-22T13:53:21;18.98;;;12.35;;
64826;SDS011;51265;53.972;12.286;2024-03-22T13:55:48;19.10;;;12.57;;
64826;SDS011;51265;53.972;12.286;2024-03-22T13:58:15;16.17;;;10.68;;
64826;SDS011;51265;53.972;12.286;2024-03-22T14:00:42;16.10;;;11.05;;
64826;SDS011;51265;53.972;12.286;2024-03-22T14:03:08;16.55;;;12.25;;
64826;SDS011;51265;53.972;12.286;2024-03-22T14:05:34;15.77;;;10.85;;
64826;SDS011;51265;53.972;12.286;2024-03-22T14:08:01;15.77;;;10.57;;